Time;durP1;ratioP1;P1;durP2;ratioP2;P2;SDS_P1;SDS_P2;PMS_P1;PMS_P2;Temp;Humidity;BMP_temperature;BMP_pressure;BME280_temperature;BME280_humidity;BME280_pressure;Samples;Min_cycle;Max_cycle;Signal;HPM_P1;HPM_P2
2023/03/12 00:00:10;;;;;;;6.20;1.60;;;;;;;-1.03;75.88;100468.12;106378;1259;61439;-70
2023/03/12 00:02:37;;;;;;;4.50;1.60;;;;;;;-1.03;75.78;100468.48;106310;1260;73477;-70
2023/03/12 00:05:04;;;;;;;4.50;1.60;;;;;;;-1.05;75.98;100469.63;106393;1259;69940;-69
2023/03/12 00:07:35;;;;;;;3.10;1.50;;;;;;;-1.05;75.65;100468.45;106342;1262;70663;-69
2023/03/12 00:10:04;;;;;;;6.30;1.80;;;;;;;-1.06;75.91;100468.85;106368;1259;63117;-70
2023/03/12 00:12:33;;;;;;;5.40;1.80;;;;;;;-1.06;76.00;100473.22;106540;1259;61955;-70
2023/03/12 00:15:00;;;;;;;4.70;1.60;;;;;;;-1.06;76.00;100470.42;107159;1261;74375;-70
2023/03/12 00:17:29;;;;;;;4.10;1.70;;;;;;;-1.06;76.23;100471.63;106569;1259;71215;-70
2023/03/12 00:19:56;;;;;;;6.40;1.80;;;;;;;-1.06;76.12;100478.90;106358;1259;71552;-74
2023/03/12 00:22:25;;;;;;;5.00;1.50;;;;;;;-1.06;75.95;100475.45;106285;1260;61223;-72
2023/03/12 00:24:55;;;;;;;4.00;1.70;;;;;;;-1.07;75.86;100479.55;106269;1259;61663;-70
2023/03/12 00:27:24;;;;;;;4.20;1.80;;;;;;;-1.08;75.97;100480.48;106719;1259;74721;-70
2023/03/12 00:29:51;;;;;;;4.30;1.60;;;;;;;-1.10;76.04;100478.69;106829;1259;70008;-70
2023/03/12 00:32:19;;;;;;;5.80;1.70;;;;;;;-1.11;76.09;100479.12;106915;1259;72708;-71
2023/03/12 00:34:53;;;;;;;6.50;1.90;;;;;;;-1.14;76.09;100478.23;106295;1262;61181;-70
2023/03/12 00:37:21;;;;;;;3.30;1.90;;;;;;;-1.12;76.03;100478.67;106295;1259;61106;-69
2023/03/12 00:39:48;;;;;;;6.30;1.90;;;;;;;-1.12;76.34;100482.60;106296;1259;73580;-71
2023/03/12 00:42:14;;;;;;;3.50;1.60;;;;;;;-1.10;76.31;100481.48;106159;1259;69981;-70
2023/03/12 00:44:44;;;;;;;4.20;1.70;;;;;;;-1.08;76.17;100478.21;106136;1262;72526;-72
2023/03/12 00:47:17;;;;;;;4.40;1.50;;;;;;;-1.06;76.22;100475.96;106451;1263;61272;-70
2023/03/12 00:49:44;;;;;;;4.50;1.70;;;;;;;-1.03;76.13;100472.29;107584;1259;60580;-70
2023/03/12 00:52:12;;;;;;;6.00;1.70;;;;;;;-0.98;75.99;100469.84;106641;1259;72470;-70
2023/03/12 00:54:39;;;;;;;4.30;1.70;;;;;;;-0.92;75.81;100462.38;106209;1259;71576;-68
2023/03/12 00:57:06;;;;;;;5.60;1.80;;;;;;;-0.89;75.84;100461.61;106370;1262;71219;-70
2023/03/12 00:59:39;;;;;;;3.80;1.20;;;;;;;-0.84;75.60;100456.95;106339;1259;61212;-69
2023/03/12 01:02:07;;;;;;;4.70;1.80;;;;;;;-0.81;75.48;100455.67;106442;1260;61282;-71
2023/03/12 01:04:43;;;;;;;4.10;2.10;;;;;;;-0.77;75.54;100453.00;106600;1260;74538;-70
2023/03/12 01:07:11;;;;;;;5.70;2.00;;;;;;;-0.73;75.54;100452.72;107033;1259;71220;-70
2023/03/12 01:09:38;;;;;;;3.10;1.50;;;;;;;-0.69;75.48;100453.12;106523;1259;72491;-72
2023/03/12 01:12:05;;;;;;;5.70;2.10;;;;;;;-0.67;75.46;100452.80;106310;1259;61605;-69
2023/03/12 01:14:32;;;;;;;7.10;1.90;;;;;;;-0.65;75.35;100450.71;106389;1259;61272;-70
2023/03/12 01:16:59;;;;;;;4.00;1.40;;;;;;;-0.64;75.41;100452.73;106586;1259;72274;-69
2023/03/12 01:19:26;;;;;;;4.90;2.00;;;;;;;-0.65;75.27;100449.18;106423;1259;70508;-71
2023/03/12 01:21:53;;;;;;;4.10;1.80;;;;;;;-0.65;75.41;100452.98;106168;1259;70678;-71
2023/03/12 01:24:21;;;;;;;4.30;2.00;;;;;;;-0.65;75.47;100450.18;106696;1259;61850;-70
2023/03/12 01:26:48;;;;;;;4.40;2.20;;;;;;;-0.65;75.52;100450.90;106840;1262;61129;-70
2023/03/12 01:29:18;;;;;;;5.80;1.90;;;;;;;-0.63;75.45;100449.16;106365;1259;74342;-70
2023/03/12 01:31:46;;;;;;;4.60;1.90;;;;;;;-0.65;75.79;100445.51;106361;1262;71418;-69
2023/03/12 01:34:13;;;;;;;4.40;2.10;;;;;;;-0.68;75.97;100449.02;106322;1265;72698;-69
2023/03/12 01:36:40;;;;;;;5.50;2.30;;;;;;;-0.73;76.73;100446.95;106570;1262;61248;-70
2023/03/12 01:39:07;;;;;;;5.60;2.10;;;;;;;-0.77;76.86;100444.81;107073;1260;61119;-70
2023/03/12 01:41:34;;;;;;;4.60;2.00;;;;;;;-0.80;77.00;100441.20;107123;1259;73939;-70
2023/03/12 01:44:02;;;;;;;6.00;2.00;;;;;;;-0.83;77.04;100443.13;106640;1260;69867;-69
2023/03/12 01:46:43;;;;;;;5.90;2.20;;;;;;;-0.86;77.29;100445.95;106937;1259;71771;-70
2023/03/12 01:49:30;;;;;;;5.10;2.00;;;;;;;-0.86;77.53;100441.91;106486;1259;61323;-70
2023/03/12 01:52:05;;;;;;;5.60;2.30;;;;;;;-0.87;77.52;100441.85;106527;1259;61361;-70
2023/03/12 01:54:36;;;;;;;6.10;2.20;;;;;;;-0.89;77.62;100436.24;108722;1259;73580;-69
2023/03/12 01:57:07;;;;;;;6.10;2.10;;;;;;;-0.90;77.51;100435.48;108638;1259;70283;-69
2023/03/12 01:59:43;;;;;;;6.10;2.20;;;;;;;-0.92;77.78;100435.27;106934;1260;72790;-71
2023/03/12 02:02:12;;;;;;;3.70;2.10;;;;;;;-0.93;77.79;100436.75;108382;1259;61161;-70
2023/03/12 02:04:42;;;;;;;6.10;2.20;;;;;;;-0.95;77.70;100433.55;106759;1259;61241;-70
2023/03/12 02:07:11;;;;;;;5.60;2.10;;;;;;;-0.96;77.82;100434.38;106529;1262;74679;-74
2023/03/12 02:09:44;;;;;;;6.50;2.40;;;;;;;-0.96;77.88;100432.29;106365;1264;69779;-70
2023/03/12 02:12:12;;;;;;;4.60;2.30;;;;;;;-0.97;77.79;100432.86;106595;1261;71286;-71
2023/03/12 02:14:39;;;;;;;6.30;2.40;;;;;;;-0.98;77.70;100427.73;106162;1259;61281;-74
2023/03/12 02:17:07;;;;;;;5.30;2.00;;;;;;;-0.99;77.71;100428.81;106374;1265;61637;-71
2023/03/12 02:19:36;;;;;;;6.60;2.40;;;;;;;-1.00;77.71;100427.00;106851;1259;74507;-70
2023/03/12 02:22:06;;;;;;;6.00;2.40;;;;;;;-1.03;77.51;100422.33;106649;1262;71229;-70
2023/03/12 02:24:42;;;;;;;4.60;2.40;;;;;;;-1.05;77.71;100425.77;107002;1259;71418;-70
2023/03/12 02:27:10;;;;;;;6.20;2.40;;;;;;;-1.08;77.80;100427.48;106399;1259;61719;-72
2023/03/12 02:29:41;;;;;;;5.80;2.10;;;;;;;-1.08;77.83;100426.86;106428;1259;61285;-69
2023/03/12 02:32:14;;;;;;;7.00;2.60;;;;;;;-1.09;77.94;100427.03;106529;1259;74699;-69
2023/03/12 02:34:42;;;;;;;7.00;2.50;;;;;;;-1.08;77.78;100429.80;106293;1268;69964;-69
2023/03/12 02:37:12;;;;;;;6.10;2.00;;;;;;;-1.08;77.77;100428.27;106752;1259;72539;-70
2023/03/12 02:39:40;;;;;;;5.90;2.20;;;;;;;-1.08;77.59;100431.38;106427;1259;61765;-69
2023/03/12 02:42:07;;;;;;;5.20;1.90;;;;;;;-1.10;77.69;100427.84;107097;1259;61258;-70
2023/03/12 02:44:35;;;;;;;5.60;2.30;;;;;;;-1.13;78.10;100433.23;106344;1266;73164;-70
2023/03/12 02:47:02;;;;;;;5.60;2.30;;;;;;;-1.16;78.26;100433.63;106483;1262;70288;-70
2023/03/12 02:49:33;;;;;;;6.30;2.50;;;;;;;-1.19;78.50;100436.64;106458;1259;71476;-69
2023/03/12 02:52:03;;;;;;;5.00;2.40;;;;;;;-1.22;78.58;100443.97;106555;1259;61295;-70
2023/03/12 02:54:33;;;;;;;5.30;2.30;;;;;;;-1.26;78.77;100442.43;106809;1260;61396;-70
2023/03/12 02:57:00;;;;;;;5.40;2.30;;;;;;;-1.28;78.93;100445.21;107386;1259;74749;-70
2023/03/12 02:59:27;;;;;;;5.10;2.50;;;;;;;-1.31;79.22;100442.27;107028;1259;70391;-71
2023/03/12 03:01:56;;;;;;;4.80;2.30;;;;;;;-1.32;79.26;100442.73;107045;1264;71552;-70
2023/03/12 03:04:24;;;;;;;6.40;2.70;;;;;;;-1.33;79.20;100442.23;106269;1266;61324;-69
2023/03/12 03:06:53;;;;;;;5.10;2.10;;;;;;;-1.34;79.28;100442.13;106420;1260;61621;-70
2023/03/12 03:09:21;;;;;;;5.70;2.70;;;;;;;-1.34;79.07;100440.94;106427;1261;73811;-72
2023/03/12 03:11:49;;;;;;;7.50;2.70;;;;;;;-1.35;79.10;100437.36;106618;1259;70832;-70
2023/03/12 03:14:17;;;;;;;6.30;2.50;;;;;;;-1.36;79.31;100436.56;106866;1259;72897;-71
2023/03/12 03:16:44;;;;;;;4.60;2.40;;;;;;;-1.36;79.14;100437.44;106461;1260;61695;-70
2023/03/12 03:19:11;;;;;;;5.90;2.40;;;;;;;-1.38;79.20;100436.73;106798;1265;61788;-69
2023/03/12 03:21:38;;;;;;;5.70;2.50;;;;;;;-1.39;79.20;100437.27;106366;1259;72454;-69
2023/03/12 03:24:06;;;;;;;6.90;2.60;;;;;;;-1.39;79.07;100435.77;106360;1262;69720;-70
2023/03/12 03:26:32;;;;;;;5.10;2.30;;;;;;;-1.41;79.20;100430.13;106307;1262;71527;-71
2023/03/12 03:28:59;;;;;;;5.40;2.30;;;;;;;-1.41;79.15;100436.23;106490;1259;60974;-69
2023/03/12 03:31:26;;;;;;;5.20;2.20;;;;;;;-1.42;79.35;100436.63;106777;1259;61357;-70
2023/03/12 03:33:53;;;;;;;4.80;2.60;;;;;;;-1.43;79.22;100435.50;106698;1259;75167;-68
2023/03/12 03:36:22;;;;;;;5.10;2.20;;;;;;;-1.43;79.05;100435.27;106348;1262;70958;-70
2023/03/12 03:38:54;;;;;;;6.80;2.20;;;;;;;-1.44;79.04;100435.19;106771;1260;71471;-70
2023/03/12 03:41:22;;;;;;;6.40;2.10;;;;;;;-1.45;78.97;100437.65;106152;1261;61344;-68
2023/03/12 03:43:49;;;;;;;5.10;2.20;;;;;;;-1.46;79.03;100432.73;106657;1264;61242;-70
2023/03/12 03:46:16;;;;;;;4.70;2.40;;;;;;;-1.47;79.03;100434.02;106535;1259;73539;-70
2023/03/12 03:48:43;;;;;;;6.40;2.50;;;;;;;-1.49;78.98;100433.08;106770;1260;70662;-68
2023/03/12 03:51:13;;;;;;;6.70;2.30;;;;;;;-1.51;78.92;100431.35;106402;1259;71609;-70
2023/03/12 03:53:39;;;;;;;6.70;2.40;;;;;;;-1.53;78.97;100436.52;106849;1259;61715;-70
2023/03/12 03:56:09;;;;;;;5.50;2.20;;;;;;;-1.56;78.87;100434.27;106719;1259;60250;-70
2023/03/12 03:58:37;;;;;;;6.10;2.50;;;;;;;-1.59;78.91;100433.83;106438;1259;73756;-69
2023/03/12 04:01:05;;;;;;;3.80;2.20;;;;;;;-1.64;78.94;100437.23;106680;1259;70098;-69
2023/03/12 04:03:33;;;;;;;5.10;2.20;;;;;;;-1.70;79.15;100435.20;106474;1259;71739;-70
2023/03/12 04:06:03;;;;;;;7.20;2.60;;;;;;;-1.75;79.15;100441.58;107047;1259;62054;-72
2023/03/12 04:08:34;;;;;;;5.50;2.50;;;;;;;-1.79;79.24;100439.14;106071;1264;61230;-72
2023/03/12 04:11:10;;;;;;;5.40;2.20;;;;;;;-1.84;79.34;100436.49;106961;1260;75881;-70
2023/03/12 04:13:37;;;;;;;6.50;2.50;;;;;;;-1.88;79.61;100434.52;106432;1259;71062;-72
2023/03/12 04:16:05;;;;;;;6.60;2.50;;;;;;;-1.92;79.53;100430.94;106530;1259;72477;-69
2023/03/12 04:18:32;;;;;;;4.60;2.10;;;;;;;-1.94;79.74;100434.87;106272;1259;61347;-69
2023/03/12 04:20:59;;;;;;;4.20;2.20;;;;;;;-1.96;80.01;100435.19;106486;1267;59626;-69
2023/03/12 04:23:25;;;;;;;5.00;2.10;;;;;;;-1.98;80.10;100437.55;107050;1260;74832;-69
2023/03/12 04:25:52;;;;;;;5.60;2.40;;;;;;;-2.00;79.98;100436.66;106510;1266;70749;-69
2023/03/12 04:28:19;;;;;;;4.90;2.30;;;;;;;-2.04;80.04;100431.73;106329;1264;71150;-73
2023/03/12 04:30:58;;;;;;;5.80;2.40;;;;;;;-2.07;80.03;100437.84;106953;1259;61292;-70
2023/03/12 04:33:30;;;;;;;4.30;2.30;;;;;;;-2.11;80.19;100440.98;106474;1259;61183;-70
2023/03/12 04:36:02;;;;;;;5.20;2.30;;;;;;;-2.13;80.27;100439.92;106378;1259;73277;-69
2023/03/12 04:38:30;;;;;;;6.00;2.30;;;;;;;-2.15;80.27;100441.94;106518;1259;69869;-68
2023/03/12 04:41:08;;;;;;;5.10;2.20;;;;;;;-2.16;80.58;100439.77;106575;1259;72676;-69
2023/03/12 04:43:35;;;;;;;4.50;2.60;;;;;;;-2.16;80.86;100439.77;107235;1259;61906;-70
2023/03/12 04:46:04;;;;;;;4.50;2.70;;;;;;;-2.15;81.21;100438.70;106439;1259;61232;-69
2023/03/12 04:48:31;;;;;;;6.90;2.60;;;;;;;-2.14;81.35;100439.81;106629;1263;73235;-69
2023/03/12 04:50:58;;;;;;;6.40;2.40;;;;;;;-2.14;81.68;100441.70;106889;1259;70289;-68
2023/03/12 04:53:25;;;;;;;5.20;2.70;;;;;;;-2.11;81.88;100443.79;106481;1259;72200;-70
2023/03/12 04:55:52;;;;;;;4.60;2.20;;;;;;;-2.08;82.07;100443.73;106349;1259;61631;-70
2023/03/12 04:58:20;;;;;;;5.90;2.20;;;;;;;-2.03;81.83;100437.77;106448;1259;61237;-70
2023/03/12 05:00:48;;;;;;;5.70;2.20;;;;;;;-1.99;81.81;100431.77;106889;1259;74727;-69
2023/03/12 05:03:18;;;;;;;4.80;2.30;;;;;;;-1.95;81.71;100438.06;106691;1259;71031;-70
2023/03/12 05:05:45;;;;;;;6.00;2.30;;;;;;;-1.91;81.55;100433.63;107140;1259;71215;-70
2023/03/12 05:08:12;;;;;;;6.00;2.40;;;;;;;-1.86;81.59;100433.48;106219;1267;61347;-70
2023/03/12 05:10:39;;;;;;;4.90;2.70;;;;;;;-1.82;81.34;100434.27;106686;1259;61128;-70
2023/03/12 05:13:18;;;;;;;5.10;2.40;;;;;;;-1.79;81.36;100432.33;106318;1259;73526;-70
2023/03/12 05:15:49;;;;;;;5.50;2.30;;;;;;;-1.75;81.25;100427.76;106173;1265;71100;-69
2023/03/12 05:18:19;;;;;;;4.20;2.40;;;;;;;-1.72;81.19;100427.56;107096;1259;71196;-69
2023/03/12 05:21:07;;;;;;;4.50;2.30;;;;;;;-1.69;80.99;100425.63;106774;1260;61309;-69
2023/03/12 05:23:34;;;;;;;6.00;2.50;;;;;;;-1.65;81.09;100426.02;106457;1260;62046;-70
2023/03/12 05:26:01;;;;;;;5.00;2.10;;;;;;;-1.59;81.16;100423.20;107338;1259;74605;-70
2023/03/12 05:28:28;;;;;;;6.00;2.40;;;;;;;-1.53;81.00;100421.58;106298;1259;72536;-69
2023/03/12 05:30:57;;;;;;;5.40;2.30;;;;;;;-1.48;80.97;100419.66;106255;1259;73645;-70
2023/03/12 05:33:26;;;;;;;5.10;2.00;;;;;;;-1.42;80.88;100415.80;106285;1261;61152;-70
2023/03/12 05:35:56;;;;;;;5.30;2.10;;;;;;;-1.36;80.71;100413.13;106888;1259;61289;-69
2023/03/12 05:38:23;;;;;;;5.40;2.20;;;;;;;-1.31;80.54;100412.25;106805;1260;75693;-69
2023/03/12 05:40:55;;;;;;;4.90;2.10;;;;;;;-1.25;80.42;100409.09;106214;1259;69934;-70
2023/03/12 05:43:22;;;;;;;6.20;2.50;;;;;;;-1.21;80.29;100407.76;107258;1264;71243;-72
2023/03/12 05:45:50;;;;;;;7.90;2.50;;;;;;;-1.15;80.04;100406.70;106376;1267;61137;-70
2023/03/12 05:48:17;;;;;;;5.70;2.10;;;;;;;-1.10;79.95;100406.86;106814;1259;61276;-69
2023/03/12 05:50:44;;;;;;;4.10;2.10;;;;;;;-1.05;79.62;100402.81;106382;1259;74405;-70
2023/03/12 05:53:11;;;;;;;4.20;2.00;;;;;;;-0.99;79.43;100399.70;106471;1260;70175;-71
2023/03/12 05:55:38;;;;;;;4.10;2.00;;;;;;;-0.95;79.28;100397.44;107144;1260;72460;-69
2023/03/12 05:58:06;;;;;;;5.80;2.30;;;;;;;-0.89;79.16;100389.44;106359;1264;61157;-69
2023/03/12 06:00:36;;;;;;;4.50;2.00;;;;;;;-0.86;78.89;100388.80;106381;1259;61112;-70
2023/03/12 06:03:04;;;;;;;5.10;2.30;;;;;;;-0.81;78.90;100385.73;106375;1266;72301;-70
2023/03/12 06:05:34;;;;;;;4.70;1.90;;;;;;;-0.76;78.73;100385.36;106412;1259;70995;-69
2023/03/12 06:08:02;;;;;;;5.10;2.10;;;;;;;-0.71;78.74;100386.27;106449;1265;70292;-70
2023/03/12 06:10:29;;;;;;;5.70;2.30;;;;;;;-0.69;78.64;100384.85;106458;1259;61126;-68
2023/03/12 06:12:56;;;;;;;4.70;2.40;;;;;;;-0.66;78.58;100384.83;106269;1262;61221;-71
2023/03/12 06:15:24;;;;;;;4.20;2.10;;;;;;;-0.65;78.75;100385.73;107038;1260;74356;-70
2023/03/12 06:17:50;;;;;;;4.40;2.20;;;;;;;-0.61;78.85;100383.41;106407;1259;70009;-69
2023/03/12 06:20:17;;;;;;;6.30;2.10;;;;;;;-0.56;78.94;100381.33;107212;1259;71510;-69
2023/03/12 06:22:44;;;;;;;5.40;2.10;;;;;;;-0.50;78.81;100379.30;106283;1259;61345;-69
2023/03/12 06:25:11;;;;;;;4.80;2.30;;;;;;;-0.43;78.90;100376.36;106173;1260;61430;-74
2023/03/12 06:27:38;;;;;;;4.30;2.10;;;;;;;-0.36;78.76;100373.26;106502;1259;74521;-68
2023/03/12 06:30:10;;;;;;;4.10;2.20;;;;;;;-0.31;78.55;100364.77;106753;1259;69362;-70
2023/03/12 06:32:37;;;;;;;5.40;2.30;;;;;;;-0.30;78.51;100362.19;106676;1264;72514;-69
2023/03/12 06:35:04;;;;;;;5.60;2.50;;;;;;;-0.26;78.53;100361.43;106663;1261;61666;-70
2023/03/12 06:37:32;;;;;;;4.70;2.30;;;;;;;-0.24;78.53;100361.94;106559;1261;62861;-70
2023/03/12 06:39:58;;;;;;;6.10;2.40;;;;;;;-0.23;78.34;100362.20;107131;1260;72814;-69
2023/03/12 06:42:27;;;;;;;5.20;2.70;;;;;;;-0.21;78.49;100360.53;106899;1260;71458;-69
2023/03/12 06:44:54;;;;;;;4.60;2.50;;;;;;;-0.19;78.39;100356.22;106508;1259;71187;-69
2023/03/12 06:47:23;;;;;;;5.60;3.00;;;;;;;-0.18;78.54;100357.66;106814;1259;61228;-72
2023/03/12 06:49:50;;;;;;;4.70;2.50;;;;;;;-0.16;78.50;100357.58;106550;1264;61102;-70
2023/03/12 06:52:20;;;;;;;4.30;2.10;;;;;;;-0.15;78.32;100359.57;107203;1265;74672;-70
2023/03/12 06:54:47;;;;;;;5.50;2.20;;;;;;;-0.12;78.30;100356.19;106449;1265;70969;-70
2023/03/12 06:57:15;;;;;;;4.90;2.40;;;;;;;-0.06;78.19;100360.30;106664;1262;72398;-69
2023/03/12 06:59:42;;;;;;;3.90;2.10;;;;;;;-0.01;78.04;100356.81;106670;1264;60940;-68
2023/03/12 07:02:10;;;;;;;6.30;2.70;;;;;;;0.05;77.63;100359.14;106677;1259;61368;-69
2023/03/12 07:04:37;;;;;;;4.80;2.40;;;;;;;0.11;77.46;100356.41;106533;1264;73442;-72
2023/03/12 07:07:08;;;;;;;5.80;2.70;;;;;;;0.17;77.13;100353.31;106227;1260;69809;-72
2023/03/12 07:09:36;;;;;;;5.40;2.80;;;;;;;0.26;77.09;100353.00;106291;1260;72448;-68
2023/03/12 07:12:03;;;;;;;5.20;2.70;;;;;;;0.35;76.67;100349.48;106834;1259;61319;-70
2023/03/12 07:14:29;;;;;;;6.10;3.10;;;;;;;0.48;76.57;100344.73;106576;1266;61379;-70
2023/03/12 07:17:00;;;;;;;7.80;2.60;;;;;;;0.58;76.24;100344.96;106944;1259;73159;-68
2023/03/12 07:19:29;;;;;;;6.30;2.80;;;;;;;0.69;75.93;100345.84;108061;1260;69963;-68
2023/03/12 07:21:55;;;;;;;5.20;2.60;;;;;;;0.77;75.58;100344.69;107029;1259;73260;-70
2023/03/12 07:24:24;;;;;;;5.10;2.90;;;;;;;0.85;75.31;100340.45;106494;1259;61321;-69
2023/03/12 07:26:51;;;;;;;7.30;2.60;;;;;;;0.91;74.92;100336.30;106609;1259;62295;-70
2023/03/12 07:29:17;;;;;;;5.50;2.50;;;;;;;0.96;74.91;100331.36;106048;1266;73189;-68
2023/03/12 07:31:44;;;;;;;6.20;2.60;;;;;;;1.00;74.69;100329.48;106377;1263;71186;-71
2023/03/12 07:34:11;;;;;;;4.00;2.80;;;;;;;1.06;74.38;100328.50;106230;1260;70833;-68
2023/03/12 07:36:38;;;;;;;7.60;3.00;;;;;;;1.16;74.40;100329.11;106229;1260;61105;-70
2023/03/12 07:39:05;;;;;;;4.80;2.70;;;;;;;1.29;74.13;100326.13;106095;1260;61302;-69
2023/03/12 07:41:34;;;;;;;6.80;2.70;;;;;;;1.40;73.35;100327.34;106200;1259;73144;-74
2023/03/12 07:44:01;;;;;;;3.70;2.30;;;;;;;1.51;72.67;100327.63;106383;1264;71596;-70
2023/03/12 07:46:27;;;;;;;6.30;2.20;;;;;;;1.62;72.17;100321.15;106653;1266;71919;-70
2023/03/12 07:48:54;;;;;;;5.70;2.50;;;;;;;1.71;71.20;100323.76;106270;1260;61451;-69
2023/03/12 07:51:21;;;;;;;5.40;2.30;;;;;;;1.78;70.91;100327.74;106274;1260;61272;-72
2023/03/12 07:53:47;;;;;;;4.30;2.00;;;;;;;1.84;70.99;100330.35;106147;1261;72580;-70
2023/03/12 07:56:17;;;;;;;5.20;2.20;;;;;;;1.90;70.54;100327.98;106371;1264;71626;-69
2023/03/12 07:58:44;;;;;;;6.00;2.30;;;;;;;1.97;70.24;100325.75;106094;1264;72684;-71
2023/03/12 08:01:12;;;;;;;4.80;2.40;;;;;;;2.08;70.11;100329.55;106351;1265;61282;-71
2023/03/12 08:03:39;;;;;;;3.90;2.30;;;;;;;2.20;69.82;100328.36;106233;1265;61275;-69
2023/03/12 08:06:06;;;;;;;4.40;2.50;;;;;;;2.36;69.47;100329.29;106959;1260;75089;-71
2023/03/12 08:08:34;;;;;;;3.90;1.80;;;;;;;2.48;68.68;100326.95;106249;1264;71240;-72
2023/03/12 08:11:03;;;;;;;4.80;2.40;;;;;;;2.53;68.68;100322.63;106163;1265;72757;-69
2023/03/12 08:13:30;;;;;;;3.90;2.00;;;;;;;2.54;68.34;100322.23;106172;1266;61627;-70
2023/03/12 08:15:57;;;;;;;4.40;2.00;;;;;;;2.54;68.20;100316.60;106374;1264;61243;-71
2023/03/12 08:18:25;;;;;;;5.50;2.20;;;;;;;2.57;67.65;100309.89;106297;1260;73455;-73
2023/03/12 08:20:53;;;;;;;4.20;2.00;;;;;;;2.64;67.87;100304.89;106299;1263;69943;-70
2023/03/12 08:23:21;;;;;;;4.10;2.00;;;;;;;2.78;67.61;100300.02;107064;1260;72564;-70
2023/03/12 08:25:49;;;;;;;7.00;2.30;;;;;;;2.92;67.44;100291.98;107015;1261;61877;-70
2023/03/12 08:28:16;;;;;;;5.30;2.60;;;;;;;3.02;66.77;100289.15;107851;1260;60226;-69
2023/03/12 08:30:49;;;;;;;4.20;2.20;;;;;;;3.11;66.74;100289.61;108623;1260;74834;-69
2023/03/12 08:33:16;;;;;;;4.80;2.30;;;;;;;3.18;66.29;100292.11;107524;1259;70334;-69
2023/03/12 08:35:43;;;;;;;5.70;2.30;;;;;;;3.24;65.73;100293.30;107437;1260;71561;-69
2023/03/12 08:38:10;;;;;;;5.80;2.20;;;;;;;3.34;65.94;100303.13;107546;1265;61240;-70
2023/03/12 08:40:37;;;;;;;5.10;2.10;;;;;;;3.40;65.43;100302.58;107565;1265;61148;-71
2023/03/12 08:43:03;;;;;;;5.40;2.30;;;;;;;3.46;65.20;100302.22;106560;1260;74678;-70
2023/03/12 08:45:31;;;;;;;4.60;1.80;;;;;;;3.52;65.33;100304.84;106214;1266;69663;-75
2023/03/12 08:48:01;;;;;;;4.00;1.50;;;;;;;3.65;65.16;100304.30;106500;1266;336739;-72
2023/03/12 08:50:30;;;;;;;4.80;2.00;;;;;;;3.79;64.43;100306.37;106983;1259;61347;-72
2023/03/12 08:53:00;;;;;;;4.20;1.60;;;;;;;3.89;64.63;100306.20;106588;1261;61352;-71
2023/03/12 08:55:29;;;;;;;4.60;1.80;;;;;;;3.91;63.61;100305.85;106721;1265;74452;-71
2023/03/12 08:57:56;;;;;;;3.90;1.60;;;;;;;3.93;63.78;100307.17;106905;1260;70397;-71
2023/03/12 09:00:23;;;;;;;5.10;2.10;;;;;;;3.99;64.02;100309.14;106428;1260;71568;-71
2023/03/12 09:02:52;;;;;;;4.00;1.80;;;;;;;4.07;64.30;100312.18;107813;1261;62025;-70
2023/03/12 09:05:19;;;;;;;6.20;1.90;;;;;;;4.19;64.24;100314.06;106289;1260;61223;-71
2023/03/12 09:07:46;;;;;;;4.70;1.80;;;;;;;4.33;63.67;100311.16;106592;1260;72999;-70
2023/03/12 09:10:13;;;;;;;4.10;1.90;;;;;;;4.44;62.61;100310.30;106500;1265;69791;-72
2023/03/12 09:12:43;;;;;;;3.60;1.70;;;;;;;4.51;62.24;100308.14;106446;1266;70851;-71
2023/03/12 09:15:10;;;;;;;3.40;1.60;;;;;;;4.52;61.76;100304.92;106851;1261;61276;-70
2023/03/12 09:17:37;;;;;;;5.00;1.70;;;;;;;4.47;61.76;100302.33;106669;1264;61262;-71
2023/03/12 09:20:07;;;;;;;4.30;1.90;;;;;;;4.47;61.78;100306.13;106436;1261;74372;-73
2023/03/12 09:22:38;;;;;;;4.70;2.00;;;;;;;4.49;61.41;100306.58;106549;1266;71560;-71
2023/03/12 09:25:07;;;;;;;4.60;1.50;;;;;;;4.58;61.84;100306.89;106474;1260;71951;-73
2023/03/12 09:27:36;;;;;;;4.40;1.70;;;;;;;4.71;61.39;100307.77;106493;1262;61900;-71
2023/03/12 09:30:04;;;;;;;5.20;2.10;;;;;;;4.81;61.30;100299.61;106608;1260;61462;-72
2023/03/12 09:32:32;;;;;;;5.80;2.30;;;;;;;4.90;61.60;100299.83;107464;1260;73208;-70
2023/03/12 09:34:59;;;;;;;6.30;2.70;;;;;;;4.94;61.07;100294.55;108198;1260;70039;-71
2023/03/12 09:37:26;;;;;;;4.50;1.90;;;;;;;5.00;60.85;100296.65;106311;1260;73538;-70
2023/03/12 09:39:53;;;;;;;4.90;1.60;;;;;;;5.06;59.79;100295.98;106596;1266;59343;-72
2023/03/12 09:46:48;;;;;;;3.80;1.60;;;;;;;5.44;58.54;100299.33;106005;1260;76000;-71
2023/03/12 09:49:27;;;;;;;4.90;1.80;;;;;;;5.57;57.04;100296.62;105690;1261;69738;-72
2023/03/12 09:51:57;;;;;;;4.50;1.60;;;;;;;5.65;55.66;100296.05;106511;1260;72407;-72
2023/03/12 09:54:50;;;;;;;5.90;1.70;;;;;;;5.70;54.68;100287.26;105928;1260;61273;-72
2023/03/12 09:57:22;;;;;;;4.10;1.40;;;;;;;5.83;54.78;100277.23;106052;1260;61205;-71
2023/03/12 09:59:51;;;;;;;5.90;1.60;;;;;;;5.92;53.80;100258.20;106027;1260;74483;-70
2023/03/12 10:02:54;;;;;;;5.10;1.70;;;;;;;5.91;52.82;100243.95;105661;1260;70914;-72
2023/03/12 10:05:35;;;;;;;4.10;1.30;;;;;;;5.98;53.11;100248.33;105881;1261;71248;-72
2023/03/12 10:08:19;;;;;;;6.80;1.70;;;;;;;6.11;53.56;100240.54;105923;1266;61396;-72
2023/03/12 10:11:01;;;;;;;5.10;1.50;;;;;;;6.11;52.57;100233.98;107557;1260;61269;-70
2023/03/12 10:13:50;;;;;;;4.80;1.70;;;;;;;6.16;53.43;100225.45;105817;1262;73705;-72
2023/03/12 10:16:39;;;;;;;6.00;1.80;;;;;;;6.28;53.24;100222.67;105917;1261;70930;-71
2023/03/12 10:19:24;;;;;;;4.00;1.40;;;;;;;6.41;53.28;100225.99;106115;1260;71980;-70
2023/03/12 10:21:56;;;;;;;3.70;1.80;;;;;;;6.50;52.53;100229.30;105531;1260;61389;-71
2023/03/12 10:24:55;;;;;;;4.60;1.70;;;;;;;6.58;52.54;100222.94;105877;1261;61214;-72
2023/03/12 10:27:29;;;;;;;8.10;2.00;;;;;;;6.60;51.93;100220.41;106165;1260;73568;-72
2023/03/12 10:29:57;;;;;;;4.30;1.60;;;;;;;6.68;52.78;100222.38;106161;1264;71233;-72
2023/03/12 10:32:39;;;;;;;4.50;1.50;;;;;;;6.73;52.75;100216.55;105891;1263;72811;-71
2023/03/12 10:35:13;;;;;;;2.80;1.20;;;;;;;6.68;52.37;100202.09;105792;1264;61176;-71
2023/03/12 10:37:47;;;;;;;3.30;1.30;;;;;;;6.64;52.77;100196.04;105793;1260;61356;-70
2023/03/12 10:40:22;;;;;;;3.40;1.30;;;;;;;6.63;51.94;100199.55;105525;1266;74386;-72
2023/03/12 10:42:51;;;;;;;3.50;1.40;;;;;;;6.55;52.76;100193.84;105695;1261;71194;-71
2023/03/12 10:45:37;;;;;;;3.30;1.30;;;;;;;6.49;52.87;100198.48;106591;1260;72434;-71
2023/03/12 10:48:07;;;;;;;3.20;1.40;;;;;;;6.36;53.06;100194.39;105804;1263;61248;-72
2023/03/12 10:50:39;;;;;;;4.50;1.60;;;;;;;6.23;53.42;100180.45;105510;1260;61247;-73
2023/03/12 10:53:25;;;;;;;4.70;1.40;;;;;;;6.18;54.22;100173.77;105491;1266;74022;-73
2023/03/12 10:56:05;;;;;;;4.60;1.50;;;;;;;6.13;54.81;100175.85;105907;1260;71104;-70
2023/03/12 10:58:40;;;;;;;4.20;1.50;;;;;;;6.09;55.06;100181.21;106034;1260;71000;-74
2023/03/12 11:01:25;;;;;;;4.00;1.50;;;;;;;6.01;55.15;100176.76;107165;1260;61336;-72
2023/03/12 11:04:07;;;;;;;3.50;1.40;;;;;;;5.85;56.15;100172.45;106382;1261;61117;-69
2023/03/12 11:06:34;;;;;;;3.80;1.50;;;;;;;5.65;57.48;100169.38;106200;1260;74747;-72
2023/03/12 11:09:18;;;;;;;3.90;1.50;;;;;;;5.54;58.27;100162.96;105582;1266;69946;-71
2023/03/12 11:11:46;;;;;;;2.80;1.70;;;;;;;5.37;58.71;100167.23;105890;1260;72390;-71
2023/03/12 11:14:28;;;;;;;3.80;1.40;;;;;;;5.17;59.53;100169.33;106159;1262;62154;-72
2023/03/12 11:17:15;;;;;;;3.10;1.50;;;;;;;4.93;60.73;100166.35;106016;1266;61379;-70
2023/03/12 11:19:42;;;;;;;3.80;1.70;;;;;;;4.81;61.75;100166.36;108697;1260;74434;-71
2023/03/12 11:22:10;;;;;;;5.60;1.60;;;;;;;4.73;62.27;100173.61;108723;1259;70923;-71
2023/03/12 11:24:55;;;;;;;6.60;1.70;;;;;;;4.60;63.12;100176.14;108685;1259;72708;-71
2023/03/12 11:27:36;;;;;;;7.00;1.80;;;;;;;4.57;63.63;100168.69;106767;1260;61372;-72
2023/03/12 11:30:06;;;;;;;4.20;1.50;;;;;;;4.55;63.91;100164.64;106889;1267;60592;-71
2023/03/12 11:32:44;;;;;;;4.80;1.50;;;;;;;4.47;64.63;100156.98;106547;1260;72555;-71
2023/03/12 11:35:18;;;;;;;3.90;1.80;;;;;;;4.42;65.28;100152.46;108228;1260;72594;-71